Time;durP1;ratioP1;P1;durP2;ratioP2;P2;SDS_P1;SDS_P2;PMS_P1;PMS_P2;Temp;Humidity;BMP_temperature;BMP_pressure;BME280_temperature;BME280_humidity;BME280_pressure;Samples;Min_cycle;Max_cycle;Signal;HPM_P1;HPM_P2
2021/06/22 00:02:26;;;;;;;2.40;2.20;;;27.30;54.30;;;;;;5116957;27;20446;-77
2021/06/22 00:04:54;;;;;;;2.77;2.20;;;27.30;54.30;;;;;;5117111;27;20439;-76
2021/06/22 00:07:22;;;;;;;2.43;1.90;;;27.30;54.40;;;;;;5119821;27;20467;-76
2021/06/22 00:09:50;;;;;;;2.83;1.70;;;27.30;54.20;;;;;;5109190;27;20439;-76
2021/06/22 00:12:18;;;;;;;1.90;1.80;;;27.30;54.30;;;;;;5119396;27;20425;-76
2021/06/22 00:14:47;;;;;;;2.10;1.83;;;27.30;54.30;;;;;;5121427;27;20458;-77
2021/06/22 00:17:15;;;;;;;2.00;1.90;;;27.30;54.20;;;;;;5122693;27;20474;-76
2021/06/22 00:19:43;;;;;;;2.73;1.93;;;27.30;54.20;;;;;;5112585;27;20528;-76
2021/06/22 00:22:11;;;;;;;2.20;1.80;;;27.30;54.30;;;;;;5108716;27;20444;-75
2021/06/22 00:24:40;;;;;;;2.07;1.97;;;27.30;54.30;;;;;;5106556;27;20411;-76
2021/06/22 00:27:08;;;;;;;2.40;2.20;;;27.20;54.20;;;;;;5103773;27;20485;-75
2021/06/22 00:29:39;;;;;;;3.87;2.10;;;27.30;54.20;;;;;;5106035;27;20418;-75
2021/06/22 00:32:09;;;;;;;1.90;1.80;;;27.20;54.20;;;;;;5112230;27;20534;-76
2021/06/22 00:34:40;;;;;;;2.20;1.90;;;27.20;54.10;;;;;;5107877;27;20504;-76
2021/06/22 00:37:08;;;;;;;2.73;1.80;;;27.20;54.00;;;;;;5110274;28;20509;-76
2021/06/22 00:39:36;;;;;;;4.63;2.17;;;27.20;54.00;;;;;;5109333;27;20422;-75
2021/06/22 00:42:07;;;;;;;2.23;1.77;;;27.10;54.00;;;;;;5110017;28;20436;-75
2021/06/22 00:44:44;;;;;;;2.63;2.13;;;27.20;54.60;;;;;;5107467;28;20407;-76
2021/06/22 00:47:15;;;;;;;2.20;2.00;;;27.20;54.10;;;;;;5105806;28;20503;-76
2021/06/22 00:49:43;;;;;;;2.27;2.07;;;27.10;54.00;;;;;;5112036;28;20464;-75
2021/06/22 00:52:13;;;;;;;8.93;2.30;;;27.10;54.10;;;;;;5107013;28;20413;-75
2021/06/22 00:54:41;;;;;;;2.57;1.93;;;27.10;54.10;;;;;;5107271;28;20422;-76
2021/06/22 00:57:10;;;;;;;4.27;1.90;;;27.10;54.00;;;;;;5109806;28;20431;-76
2021/06/22 00:59:38;;;;;;;2.17;1.90;;;27.10;54.10;;;;;;5105147;28;20460;-75
2021/06/22 01:02:09;;;;;;;6.40;1.90;;;27.10;54.00;;;;;;5111266;28;20439;-75
2021/06/22 01:04:38;;;;;;;2.00;1.80;;;27.00;54.10;;;;;;5106292;28;20511;-76
2021/06/22 01:07:06;;;;;;;2.20;2.00;;;27.00;54.00;;;;;;5109942;28;20439;-76
2021/06/22 01:09:34;;;;;;;2.40;2.20;;;27.00;54.10;;;;;;5106700;28;20486;-76
2021/06/22 01:12:02;;;;;;;4.93;2.07;;;27.00;54.10;;;;;;5106675;27;20515;-75
2021/06/22 01:14:30;;;;;;;4.93;2.20;;;27.00;54.10;;;;;;5117935;27;20491;-76
2021/06/22 01:16:58;;;;;;;2.60;2.07;;;27.00;54.10;;;;;;5122688;27;20445;-75
2021/06/22 01:19:29;;;;;;;2.67;2.10;;;27.00;54.00;;;;;;5128640;27;20496;-76
2021/06/22 01:21:58;;;;;;;1.90;1.80;;;27.00;54.10;;;;;;5125573;27;20517;-75
2021/06/22 01:24:28;;;;;;;2.10;2.00;;;27.00;54.00;;;;;;5128903;27;20439;-75
2021/06/22 01:26:58;;;;;;;1.90;1.77;;;26.90;54.10;;;;;;5123945;27;20487;-75
2021/06/22 01:29:26;;;;;;;2.10;2.00;;;27.00;54.00;;;;;;5128112;27;20558;-75
2021/06/22 01:31:54;;;;;;;2.80;2.27;;;26.90;54.10;;;;;;5128331;27;20477;-75
2021/06/22 01:34:22;;;;;;;6.33;2.10;;;26.90;53.90;;;;;;5129018;27;20443;-75
2021/06/22 01:36:50;;;;;;;4.07;2.10;;;26.90;54.00;;;;;;5128525;27;20484;-75
2021/06/22 01:39:22;;;;;;;3.53;2.03;;;26.90;54.00;;;;;;5128250;27;20481;-75
2021/06/22 01:41:50;;;;;;;2.60;2.23;;;26.90;53.90;;;;;;5128380;27;20469;-76
2021/06/22 01:44:18;;;;;;;3.97;2.03;;;26.90;54.00;;;;;;5128264;27;20466;-75
2021/06/22 01:46:46;;;;;;;2.60;2.00;;;26.90;54.00;;;;;;5128243;27;20526;-75
2021/06/22 01:49:14;;;;;;;7.70;2.13;;;26.90;53.90;;;;;;5127300;27;20455;-75
2021/06/22 01:51:42;;;;;;;4.70;2.17;;;26.90;53.90;;;;;;5127908;27;20447;-76
2021/06/22 01:54:10;;;;;;;5.50;1.80;;;26.90;53.90;;;;;;5128145;27;20421;-76
2021/06/22 01:56:41;;;;;;;2.10;1.90;;;26.80;53.90;;;;;;5128087;27;20479;-76
2021/06/22 01:59:09;;;;;;;5.53;1.97;;;26.90;54.00;;;;;;5128189;27;20401;-76
2021/06/22 02:01:37;;;;;;;2.43;2.10;;;26.80;53.90;;;;;;5110662;27;20423;-76
2021/06/22 02:04:05;;;;;;;2.03;1.93;;;26.80;53.80;;;;;;5120116;27;20457;-76
2021/06/22 02:06:33;;;;;;;3.23;2.27;;;26.80;54.00;;;;;;5121596;27;20414;-76
2021/06/22 02:09:01;;;;;;;2.90;1.93;;;26.80;54.00;;;;;;5118596;27;20566;-76
2021/06/22 02:11:32;;;;;;;5.43;2.23;;;26.80;53.90;;;;;;5117739;27;20511;-76
2021/06/22 02:14:03;;;;;;;2.27;2.07;;;26.80;53.70;;;;;;5132331;27;20447;-76
2021/06/22 02:16:32;;;;;;;4.17;2.27;;;26.80;53.90;;;;;;5142087;27;20401;-76
2021/06/22 02:19:00;;;;;;;2.70;2.00;;;26.80;53.80;;;;;;5147646;27;20440;-76
2021/06/22 02:21:28;;;;;;;2.43;2.10;;;26.80;53.70;;;;;;5147939;27;20442;-76
2021/06/22 02:23:56;;;;;;;2.17;2.00;;;26.80;53.80;;;;;;5148344;27;20510;-76
2021/06/22 02:26:24;;;;;;;3.63;2.40;;;26.80;53.80;;;;;;5142761;27;20480;-76
2021/06/22 02:28:52;;;;;;;2.63;2.43;;;26.70;53.70;;;;;;5147962;27;20541;-76
2021/06/22 02:31:21;;;;;;;3.43;1.90;;;26.80;53.80;;;;;;5147938;27;20405;-76
2021/06/22 02:33:49;;;;;;;2.27;2.17;;;26.70;53.60;;;;;;5147680;27;20476;-76
2021/06/22 02:36:19;;;;;;;2.40;2.20;;;26.70;53.70;;;;;;5148220;27;20432;-76
2021/06/22 02:38:47;;;;;;;2.40;2.20;;;26.80;53.70;;;;;;5147624;27;20444;-76
2021/06/22 02:41:15;;;;;;;5.07;2.27;;;26.70;54.30;;;;;;5148068;27;20436;-76
2021/06/22 02:43:44;;;;;;;3.03;1.83;;;26.70;53.70;;;;;;5148120;27;20428;-76
2021/06/22 02:46:12;;;;;;;2.67;2.47;;;26.70;53.80;;;;;;5148573;27;20461;-76
2021/06/22 02:48:41;;;;;;;2.53;2.03;;;26.70;53.60;;;;;;5147737;27;20512;-76
2021/06/22 02:51:09;;;;;;;2.33;2.13;;;26.70;53.70;;;;;;5147743;27;20490;-76
2021/06/22 02:53:37;;;;;;;2.53;2.30;;;26.70;53.70;;;;;;5147363;27;20522;-76
2021/06/22 02:56:05;;;;;;;2.03;1.90;;;26.70;53.80;;;;;;5147454;27;20550;-76
2021/06/22 02:58:33;;;;;;;2.10;2.00;;;26.70;53.70;;;;;;5143266;27;20481;-76
2021/06/22 03:01:01;;;;;;;2.80;2.03;;;26.70;53.60;;;;;;5126304;27;20402;-76
2021/06/22 03:03:29;;;;;;;2.77;1.90;;;26.70;54.20;;;;;;5144931;27;20493;-76
2021/06/22 03:05:58;;;;;;;2.30;2.20;;;26.60;53.40;;;;;;5147145;27;20454;-76
2021/06/22 03:08:26;;;;;;;2.10;2.00;;;26.70;53.40;;;;;;5146902;27;20506;-76
2021/06/22 03:10:54;;;;;;;4.50;2.17;;;26.60;53.40;;;;;;5147407;27;20513;-76
2021/06/22 03:13:22;;;;;;;2.00;1.90;;;26.60;53.50;;;;;;5146741;27;20438;-76
2021/06/22 03:15:50;;;;;;;3.30;1.77;;;26.60;53.40;;;;;;5147456;27;20473;-76
2021/06/22 03:18:18;;;;;;;2.00;1.90;;;26.60;53.50;;;;;;5147202;27;20405;-76
2021/06/22 03:20:46;;;;;;;2.07;1.97;;;26.60;53.50;;;;;;5147101;27;20527;-76
2021/06/22 03:23:15;;;;;;;2.30;2.10;;;26.60;53.50;;;;;;5146829;27;20514;-76
2021/06/22 03:25:43;;;;;;;2.37;2.17;;;26.70;53.50;;;;;;5147060;27;20444;-76
2021/06/22 03:28:11;;;;;;;3.90;2.10;;;26.60;53.40;;;;;;5146756;27;20445;-76
2021/06/22 03:30:46;;;;;;;2.13;1.90;;;26.70;53.40;;;;;;5146587;27;20460;-76
2021/06/22 03:33:14;;;;;;;2.30;2.20;;;26.60;53.30;;;;;;5147183;27;20486;-76
2021/06/22 03:35:42;;;;;;;2.20;2.07;;;26.70;53.40;;;;;;5146792;27;20417;-76
2021/06/22 03:38:10;;;;;;;4.27;2.00;;;26.60;53.20;;;;;;5146529;27;20551;-76
2021/06/22 03:40:39;;;;;;;2.47;2.03;;;26.60;53.10;;;;;;5146290;27;20462;-76
2021/06/22 03:43:07;;;;;;;2.17;2.07;;;26.60;53.20;;;;;;5146565;27;20427;-76
2021/06/22 03:45:35;;;;;;;4.70;2.00;;;26.60;53.20;;;;;;5146127;27;20435;-76
2021/06/22 03:48:03;;;;;;;2.20;2.10;;;26.60;53.30;;;;;;5146236;27;20401;-76
2021/06/22 03:50:32;;;;;;;2.23;2.13;;;26.60;53.30;;;;;;5146163;27;20533;-76
2021/06/22 03:53:00;;;;;;;2.90;2.10;;;26.60;53.20;;;;;;5146281;27;20481;-76
2021/06/22 03:55:28;;;;;;;2.20;2.10;;;26.60;53.10;;;;;;5146229;27;20452;-76
2021/06/22 03:57:59;;;;;;;2.70;2.50;;;26.60;53.10;;;;;;5146240;27;20438;-76
2021/06/22 04:00:30;;;;;;;2.13;2.03;;;26.60;53.20;;;;;;5125886;27;20413;-77
2021/06/22 04:02:59;;;;;;;2.23;2.03;;;26.60;53.00;;;;;;5139226;27;20423;-78
2021/06/22 04:05:28;;;;;;;3.30;2.30;;;26.60;53.10;;;;;;5148057;27;20412;-77
2021/06/22 04:07:56;;;;;;;3.67;2.10;;;26.60;53.00;;;;;;5142921;27;20529;-77
2021/06/22 04:10:25;;;;;;;2.53;2.33;;;26.60;53.10;;;;;;5145840;27;20437;-77
2021/06/22 04:12:53;;;;;;;3.07;2.77;;;26.60;53.00;;;;;;5145512;27;20409;-77
2021/06/22 04:15:22;;;;;;;2.63;2.03;;;26.60;53.00;;;;;;5145379;27;20433;-77
2021/06/22 04:17:51;;;;;;;2.23;2.10;;;26.60;53.00;;;;;;5146231;27;20437;-77
2021/06/22 04:20:19;;;;;;;2.23;2.10;;;26.60;53.10;;;;;;5146050;27;20442;-78
2021/06/22 04:22:47;;;;;;;3.00;2.33;;;26.60;52.90;;;;;;5146142;27;20508;-77
2021/06/22 04:25:15;;;;;;;2.40;2.20;;;26.60;53.00;;;;;;5146100;27;20420;-77
2021/06/22 04:27:43;;;;;;;2.10;1.83;;;26.60;53.00;;;;;;5145356;27;20461;-77
2021/06/22 04:30:12;;;;;;;2.43;2.20;;;26.60;53.00;;;;;;5145125;27;20537;-77
2021/06/22 04:32:41;;;;;;;3.20;2.17;;;26.60;52.90;;;;;;5145445;27;20481;-77
2021/06/22 04:35:10;;;;;;;2.40;2.00;;;26.60;52.90;;;;;;5145490;27;20418;-77
2021/06/22 04:37:39;;;;;;;2.20;2.10;;;26.60;52.90;;;;;;5145616;27;20455;-77
2021/06/22 04:40:08;;;;;;;2.70;2.30;;;26.60;52.90;;;;;;5145279;27;20451;-78
2021/06/22 04:42:36;;;;;;;2.03;1.93;;;26.50;52.80;;;;;;5145575;27;20488;-77
2021/06/22 04:45:05;;;;;;;2.73;2.13;;;26.60;52.90;;;;;;5145207;27;20413;-77
2021/06/22 04:47:33;;;;;;;2.23;2.03;;;26.60;52.70;;;;;;5145483;27;20444;-78
2021/06/22 04:50:02;;;;;;;2.57;2.47;;;26.60;52.80;;;;;;5145420;27;20441;-78
2021/06/22 04:52:30;;;;;;;4.00;2.17;;;26.60;52.90;;;;;;5145031;27;20503;-77
2021/06/22 04:54:58;;;;;;;3.27;2.40;;;26.60;52.90;;;;;;5145457;27;20434;-78
2021/06/22 04:57:26;;;;;;;2.27;2.07;;;26.50;52.80;;;;;;5149648;27;20461;-78
2021/06/22 04:59:54;;;;;;;4.83;1.97;;;26.50;52.90;;;;;;5134492;27;20421;-78
2021/06/22 05:02:22;;;;;;;2.80;2.23;;;26.50;52.60;;;;;;5131617;27;20406;-78
2021/06/22 05:04:51;;;;;;;2.83;2.10;;;26.60;52.80;;;;;;5149600;27;20425;-78
2021/06/22 05:07:20;;;;;;;2.07;1.93;;;26.60;52.80;;;;;;5149939;27;20442;-78
2021/06/22 05:09:48;;;;;;;3.03;2.23;;;26.60;52.70;;;;;;5149724;27;20553;-78
2021/06/22 05:12:18;;;;;;;7.70;2.33;;;26.60;52.70;;;;;;5149298;27;20470;-78
2021/06/22 05:14:48;;;;;;;3.40;2.00;;;26.60;52.50;;;;;;5149598;27;20466;-78
2021/06/22 05:17:16;;;;;;;2.50;2.30;;;26.60;52.60;;;;;;5149539;27;20438;-78
2021/06/22 05:19:44;;;;;;;6.10;2.33;;;26.60;52.60;;;;;;5149406;27;20451;-78
2021/06/22 05:22:14;;;;;;;2.23;2.00;;;26.60;52.40;;;;;;5149436;27;20434;-78
2021/06/22 05:24:44;;;;;;;2.40;1.90;;;26.60;52.50;;;;;;5149243;27;20426;-78
2021/06/22 05:27:13;;;;;;;2.53;2.33;;;26.60;52.40;;;;;;5149545;27;20445;-78
2021/06/22 05:29:41;;;;;;;2.43;2.30;;;26.60;52.40;;;;;;5149177;27;20463;-78
2021/06/22 05:32:09;;;;;;;1.97;1.87;;;26.60;52.30;;;;;;5148983;27;20471;-78
2021/06/22 05:34:38;;;;;;;1.90;1.70;;;26.60;52.40;;;;;;5149490;27;20417;-78
2021/06/22 05:37:07;;;;;;;2.23;2.10;;;26.60;52.30;;;;;;5149220;27;20445;-78
2021/06/22 05:39:35;;;;;;;1.93;1.83;;;26.60;52.20;;;;;;5149225;27;20416;-78
2021/06/22 05:42:05;;;;;;;2.47;2.27;;;26.60;52.20;;;;;;5148902;27;20494;-78
2021/06/22 05:44:33;;;;;;;6.77;1.90;;;26.60;52.30;;;;;;5149572;27;20456;-78
2021/06/22 05:47:05;;;;;;;2.33;2.13;;;26.70;52.30;;;;;;5149574;27;20426;-78
2021/06/22 05:49:33;;;;;;;1.90;1.80;;;26.70;52.20;;;;;;5149112;27;20501;-78
2021/06/22 05:52:02;;;;;;;2.00;1.90;;;26.70;52.20;;;;;;5148711;27;20508;-78
2021/06/22 05:54:30;;;;;;;2.60;2.10;;;26.70;52.10;;;;;;5148886;27;20509;-78
2021/06/22 05:56:58;;;;;;;2.40;2.20;;;26.80;51.90;;;;;;5149018;27;20442;-78
2021/06/22 05:59:28;;;;;;;2.30;2.10;;;26.70;52.00;;;;;;5148352;27;20465;-78
2021/06/22 06:01:56;;;;;;;2.33;2.13;;;26.80;51.90;;;;;;5148562;27;20438;-78
2021/06/22 06:04:27;;;;;;;2.00;1.80;;;26.80;51.80;;;;;;5148716;27;20416;-78
2021/06/22 06:06:56;;;;;;;4.97;2.20;;;26.80;51.90;;;;;;5148265;27;20463;-78
2021/06/22 06:09:24;;;;;;;2.70;2.23;;;26.80;51.80;;;;;;5148029;27;20426;-78
2021/06/22 06:11:52;;;;;;;2.50;2.30;;;26.80;51.70;;;;;;5147710;27;20441;-78
2021/06/22 06:14:20;;;;;;;6.93;2.43;;;26.80;51.70;;;;;;5148361;27;20409;-78
2021/06/22 06:16:50;;;;;;;2.50;2.00;;;26.90;51.60;;;;;;5147943;27;20434;-78
2021/06/22 06:19:18;;;;;;;3.03;2.23;;;26.90;51.70;;;;;;5148570;27;20423;-78
2021/06/22 06:21:46;;;;;;;2.60;2.00;;;26.90;51.70;;;;;;5148436;27;20426;-78
2021/06/22 06:24:14;;;;;;;2.50;2.30;;;26.90;51.70;;;;;;5148124;27;20441;-78
2021/06/22 06:26:53;;;;;;;2.97;1.87;;;26.90;51.50;;;;;;5148048;27;20409;-78
2021/06/22 06:29:28;;;;;;;3.13;2.47;;;26.90;51.50;;;;;;5148106;27;20514;-78
2021/06/22 06:31:57;;;;;;;2.70;2.50;;;26.90;51.60;;;;;;5147660;27;20448;-78
2021/06/22 06:34:25;;;;;;;2.40;2.27;;;26.90;51.50;;;;;;5148557;27;20533;-78
2021/06/22 06:36:54;;;;;;;2.50;2.30;;;26.90;51.40;;;;;;5148199;27;20482;-77
2021/06/22 06:39:24;;;;;;;2.60;2.40;;;26.90;51.40;;;;;;5148107;27;20438;-78
2021/06/22 06:41:52;;;;;;;2.33;2.10;;;27.00;51.40;;;;;;5148302;27;20402;-78
2021/06/22 06:44:20;;;;;;;3.30;2.43;;;27.00;51.30;;;;;;5147985;27;20428;-78
2021/06/22 06:46:48;;;;;;;2.57;2.37;;;27.00;51.40;;;;;;5148457;27;20412;-78
2021/06/22 06:49:17;;;;;;;2.43;2.23;;;27.00;51.30;;;;;;5147948;27;20436;-78
2021/06/22 06:51:46;;;;;;;3.53;2.27;;;27.10;51.20;;;;;;5147371;27;20440;-78
2021/06/22 06:54:13;;;;;;;2.50;2.00;;;27.10;51.10;;;;;;5148199;27;20503;-78
2021/06/22 06:56:43;;;;;;;2.63;2.43;;;27.20;51.00;;;;;;5147891;27;20401;-78
2021/06/22 06:59:11;;;;;;;6.13;2.50;;;27.20;50.80;;;;;;5138106;27;20402;-78
2021/06/22 07:01:39;;;;;;;5.80;2.60;;;27.30;50.80;;;;;;5126614;27;20435;-78
2021/06/22 07:04:07;;;;;;;2.83;2.00;;;27.30;50.70;;;;;;5126805;27;20446;-78
2021/06/22 07:06:37;;;;;;;3.43;2.13;;;27.40;50.50;;;;;;5126446;27;20438;-78
2021/06/22 07:09:06;;;;;;;2.33;2.13;;;27.40;50.40;;;;;;5127099;27;20439;-78
2021/06/22 07:11:36;;;;;;;4.27;2.37;;;27.40;50.40;;;;;;5125939;27;20474;-78
2021/06/22 07:14:04;;;;;;;3.33;2.57;;;27.50;50.20;;;;;;5126500;27;20398;-78
2021/06/22 07:16:33;;;;;;;3.63;2.40;;;27.50;50.30;;;;;;5126339;27;20474;-78
2021/06/22 07:19:02;;;;;;;2.20;2.10;;;27.50;50.00;;;;;;5126225;27;20488;-78
2021/06/22 07:21:30;;;;;;;2.00;1.90;;;27.60;50.10;;;;;;5126122;27;20439;-78
2021/06/22 07:24:00;;;;;;;2.60;2.37;;;27.60;49.90;;;;;;5126462;27;20435;-78
2021/06/22 07:26:34;;;;;;;2.70;2.27;;;27.60;49.80;;;;;;5126296;27;20506;-78
2021/06/22 07:29:05;;;;;;;2.70;2.13;;;27.60;49.80;;;;;;5126716;27;20458;-78
2021/06/22 07:31:36;;;;;;;2.97;2.47;;;27.60;49.70;;;;;;5126661;27;20452;-78
2021/06/22 07:34:04;;;;;;;4.03;2.57;;;27.60;49.80;;;;;;5126361;27;20446;-78
2021/06/22 07:36:32;;;;;;;3.90;2.53;;;27.70;49.70;;;;;;5126495;27;20496;-78
2021/06/22 07:39:01;;;;;;;3.03;2.50;;;27.70;49.60;;;;;;5126577;27;20553;-78
2021/06/22 07:41:29;;;;;;;3.27;2.43;;;27.70;49.50;;;;;;5126690;27;20443;-78
2021/06/22 07:43:57;;;;;;;2.73;2.23;;;27.70;49.40;;;;;;5126345;27;20470;-78
2021/06/22 07:46:25;;;;;;;3.37;2.40;;;27.70;49.50;;;;;;5133015;27;20452;-78
2021/06/22 07:48:53;;;;;;;3.23;2.27;;;27.70;49.40;;;;;;5149542;27;20416;-78
2021/06/22 07:51:21;;;;;;;2.00;1.90;;;27.70;49.40;;;;;;5151814;27;20555;-78
2021/06/22 07:53:49;;;;;;;2.23;2.00;;;27.80;49.20;;;;;;5146012;27;20426;-77
2021/06/22 07:56:19;;;;;;;2.50;2.30;;;27.70;49.10;;;;;;5146473;27;20430;-77
2021/06/22 07:58:47;;;;;;;2.70;2.03;;;27.80;49.20;;;;;;5146431;27;20412;-78
2021/06/22 08:01:15;;;;;;;2.37;2.20;;;27.80;49.20;;;;;;5146092;27;20477;-77
2021/06/22 08:03:43;;;;;;;2.33;1.80;;;27.80;49.00;;;;;;5146432;27;20418;-78
2021/06/22 08:06:11;;;;;;;3.10;2.50;;;27.80;49.10;;;;;;5143938;27;20413;-78
2021/06/22 08:08:39;;;;;;;3.80;2.60;;;27.90;49.10;;;;;;5146268;27;20453;-78
2021/06/22 08:11:07;;;;;;;3.13;2.33;;;27.90;49.00;;;;;;5146132;27;20393;-78
2021/06/22 08:13:37;;;;;;;2.50;2.30;;;27.90;49.00;;;;;;5145941;27;20405;-78
2021/06/22 08:16:05;;;;;;;2.87;2.50;;;27.90;49.00;;;;;;5145854;27;20469;-77
2021/06/22 08:18:34;;;;;;;2.30;2.10;;;27.90;48.80;;;;;;5146074;27;20434;-78
2021/06/22 08:21:02;;;;;;;2.33;2.23;;;27.90;49.00;;;;;;5145704;27;20397;-78
2021/06/22 08:23:30;;;;;;;3.10;2.40;;;27.90;49.00;;;;;;5145983;27;20397;-78
2021/06/22 08:26:00;;;;;;;3.77;2.40;;;27.90;48.90;;;;;;5145750;27;20487;-78
2021/06/22 08:28:28;;;;;;;2.27;2.07;;;28.00;48.80;;;;;;5145829;27;20408;-78
2021/06/22 08:30:59;;;;;;;2.30;2.20;;;28.00;48.70;;;;;;5145543;27;20464;-78
2021/06/22 08:33:27;;;;;;;2.10;2.00;;;28.00;48.70;;;;;;5145723;27;20458;-78
2021/06/22 08:35:55;;;;;;;2.37;2.17;;;28.00;49.20;;;;;;5145749;27;20447;-78
2021/06/22 08:38:23;;;;;;;2.80;2.50;;;28.00;48.50;;;;;;5145488;27;20465;-78
2021/06/22 08:40:51;;;;;;;1.90;1.80;;;28.00;48.60;;;;;;5145727;27;20438;-78
2021/06/22 08:43:19;;;;;;;3.40;2.20;;;28.10;48.50;;;;;;5125421;27;20405;-78
2021/06/22 08:45:48;;;;;;;2.90;2.60;;;28.10;48.40;;;;;;5145674;27;20440;-78
2021/06/22 08:48:17;;;;;;;2.77;2.10;;;28.10;48.50;;;;;;5145922;27;20434;-78
2021/06/22 08:50:46;;;;;;;2.00;1.90;;;28.10;48.40;;;;;;5143277;27;20502;-80
2021/06/22 08:53:14;;;;;;;2.40;1.90;;;28.10;48.20;;;;;;5143829;27;20532;-77
2021/06/22 08:55:42;;;;;;;2.30;2.20;;;28.20;48.30;;;;;;5145828;27;20454;-75
2021/06/22 08:58:12;;;;;;;3.10;2.20;;;28.20;48.40;;;;;;5145504;27;20412;-75
2021/06/22 09:00:41;;;;;;;3.73;2.20;;;28.20;48.40;;;;;;5130562;27;20461;-79
2021/06/22 09:03:12;;;;;;;5.97;2.87;;;28.20;48.10;;;;;;5145248;27;20408;-81
2021/06/22 09:05:42;;;;;;;5.53;2.40;;;28.20;48.70;;;;;;5143791;27;20413;-80
2021/06/22 09:08:20;;;;;;;8.57;2.97;;;28.30;48.90;;;;;;5125202;28;20445;-80
2021/06/22 09:10:50;;;;;;;7.53;2.50;;;28.30;49.20;;;;;;5144159;27;20404;-80
2021/06/22 09:13:19;;;;;;;4.87;2.30;;;28.20;49.30;;;;;;5145724;27;20448;-81
2021/06/22 09:15:49;;;;;;;5.37;2.63;;;28.20;49.40;;;;;;5145829;27;20524;-80
2021/06/22 09:18:40;;;;;;;11.90;3.23;;;28.20;49.50;;;;;;5145779;27;20412;-80
2021/06/22 09:21:13;;;;;;;8.53;2.80;;;28.20;49.60;;;;;;5141939;27;20458;-81
2021/06/22 09:23:42;;;;;;;8.13;2.93;;;28.20;49.80;;;;;;5145767;27;20499;-81
2021/06/22 09:26:11;;;;;;;9.33;2.87;;;28.20;49.70;;;;;;5145780;27;20453;-80
2021/06/22 09:28:39;;;;;;;9.00;2.80;;;28.30;49.90;;;;;;5145964;27;20464;-80
2021/06/22 09:31:07;;;;;;;9.00;3.00;;;28.30;49.80;;;;;;5145489;27;20462;-80
2021/06/22 09:33:37;;;;;;;7.83;2.87;;;28.30;49.80;;;;;;5145697;27;20523;-79
2021/06/22 09:36:07;;;;;;;10.40;2.50;;;28.40;49.70;;;;;;5145221;27;20408;-80
2021/06/22 09:38:37;;;;;;;5.60;2.60;;;28.50;49.60;;;;;;5145610;27;20483;-80
2021/06/22 09:41:10;;;;;;;15.73;2.90;;;28.60;50.10;;;;;;5145720;27;20506;-80
2021/06/22 09:43:43;;;;;;;4.83;2.70;;;28.50;49.30;;;;;;5147316;27;20464;-81
2021/06/22 09:46:11;;;;;;;9.17;3.47;;;28.50;49.10;;;;;;5149541;27;20438;-81
2021/06/22 09:48:44;;;;;;;4.83;2.70;;;28.50;49.00;;;;;;5149034;27;20485;-80
2021/06/22 09:51:12;;;;;;;5.83;2.80;;;28.60;49.00;;;;;;5149229;27;20400;-81
2021/06/22 09:53:41;;;;;;;3.27;3.00;;;28.70;48.80;;;;;;5149207;27;20440;-81
2021/06/22 09:56:19;;;;;;;5.50;2.40;;;28.70;48.60;;;;;;5149493;27;20445;-81
2021/06/22 09:58:47;;;;;;;7.90;2.47;;;28.70;48.50;;;;;;5142795;27;20406;-80
2021/06/22 10:01:34;;;;;;;3.97;2.67;;;28.90;48.60;;;;;;5140734;27;20462;-80
2021/06/22 10:04:19;;;;;;;5.80;2.50;;;29.00;48.20;;;;;;5149048;27;20511;-82
2021/06/22 10:06:54;;;;;;;2.50;2.30;;;29.10;47.90;;;;;;5149010;27;20426;-81
2021/06/22 10:09:26;;;;;;;3.93;2.60;;;29.20;47.70;;;;;;5148916;27;20529;-81
2021/06/22 10:12:12;;;;;;;2.67;2.27;;;29.30;47.50;;;;;;5148744;27;20461;-81
2021/06/22 10:14:41;;;;;;;3.67;2.20;;;29.30;47.00;;;;;;5147049;27;20442;-81
2021/06/22 10:17:09;;;;;;;3.90;2.37;;;29.40;46.80;;;;;;5150086;27;20423;-80
2021/06/22 10:19:40;;;;;;;3.20;2.40;;;29.30;46.40;;;;;;5152290;27;20426;-80
2021/06/22 10:22:08;;;;;;;2.77;2.37;;;29.30;46.40;;;;;;5146014;27;20510;-80
2021/06/22 10:24:42;;;;;;;5.90;2.33;;;29.30;46.70;;;;;;5148312;27;20440;-81
2021/06/22 10:27:10;;;;;;;3.60;2.60;;;29.50;46.60;;;;;;5147920;27;20475;-77
2021/06/22 10:29:38;;;;;;;4.40;2.50;;;29.60;46.20;;;;;;5150413;27;20469;-81
2021/06/22 10:32:07;;;;;;;3.33;2.03;;;29.60;45.50;;;;;;5159870;27;20493;-81
2021/06/22 10:34:36;;;;;;;5.97;2.77;;;29.50;45.20;;;;;;5168184;27;20536;-80
2021/06/22 10:37:07;;;;;;;5.43;2.70;;;29.40;45.20;;;;;;5147482;27;20497;-78
2021/06/22 10:39:40;;;;;;;2.40;2.20;;;29.40;45.20;;;;;;5138440;27;20484;-79
2021/06/22 10:42:11;;;;;;;5.10;2.63;;;29.30;45.20;;;;;;5136195;27;20504;-80
2021/06/22 10:44:49;;;;;;;5.53;2.33;;;29.30;45.10;;;;;;5136795;27;20473;-80
2021/06/22 10:47:22;;;;;;;3.73;1.93;;;29.30;45.30;;;;;;5136697;27;20435;-80
2021/06/22 10:50:08;;;;;;;4.47;2.53;;;29.30;45.20;;;;;;5136581;27;20427;-81
2021/06/22 10:52:57;;;;;;;7.37;2.17;;;29.30;45.10;;;;;;5135542;27;20413;-80
2021/06/22 10:55:56;;;;;;;5.53;2.77;;;29.30;44.90;;;;;;5136341;27;20438;-80
2021/06/22 10:58:24;;;;;;;3.47;1.97;;;29.50;45.00;;;;;;5136533;27;20467;-78
2021/06/22 11:01:10;;;;;;;5.90;2.57;;;29.60;45.00;;;;;;5136980;27;20427;-81
2021/06/22 11:03:38;;;;;;;3.30;2.23;;;29.70;44.50;;;;;;5137782;27;20475;-81
2021/06/22 11:06:21;;;;;;;3.77;2.47;;;29.80;44.40;;;;;;5128343;27;20426;-81
2021/06/22 11:08:49;;;;;;;2.57;2.10;;;29.90;44.10;;;;;;5145804;27;20467;-81
2021/06/22 11:11:24;;;;;;;2.00;1.80;;;29.90;44.10;;;;;;5147312;27;20414;-81
2021/06/22 11:13:56;;;;;;;3.03;2.10;;;30.00;44.20;;;;;;5146751;27;20553;-81
2021/06/22 11:16:29;;;;;;;4.07;2.40;;;30.00;43.90;;;;;;5141746;27;20427;-81
2021/06/22 11:19:10;;;;;;;4.77;2.03;;;30.00;43.90;;;;;;5142307;27;20423;-81
2021/06/22 11:21:52;;;;;;;7.23;2.47;;;29.90;43.90;;;;;;5139809;27;20431;-81
2021/06/22 11:24:24;;;;;;;6.20;2.43;;;29.80;43.90;;;;;;5135032;27;20418;-82
2021/06/22 11:27:07;;;;;;;4.83;2.20;;;29.80;44.00;;;;;;5136309;27;20419;-81
2021/06/22 11:29:49;;;;;;;4.97;2.97;;;29.80;44.10;;;;;;5140988;27;20430;-82
2021/06/22 11:32:39;;;;;;;4.20;2.30;;;29.70;44.20;;;;;;5143083;27;20474;-80
2021/06/22 11:35:13;;;;;;;2.70;2.03;;;29.70;44.20;;;;;;5125571;27;20470;-80
2021/06/22 11:37:42;;;;;;;3.10;2.30;;;29.60;44.10;;;;;;5126218;27;20555;-80
2021/06/22 11:40:11;;;;;;;2.30;2.00;;;29.60;44.10;;;;;;5131901;27;20500;-80
2021/06/22 11:42:43;;;;;;;3.63;2.23;;;29.60;44.20;;;;;;5131132;27;20473;-80
2021/06/22 11:45:24;;;;;;;5.30;2.70;;;29.60;44.00;;;;;;5147281;27;20429;-80
2021/06/22 11:47:59;;;;;;;5.57;2.40;;;29.60;44.20;;;;;;5146989;27;20409;-81
2021/06/22 11:50:39;;;;;;;2.20;2.00;;;29.60;44.20;;;;;;5141687;27;20473;-80
2021/06/22 11:53:11;;;;;;;3.23;2.17;;;29.60;44.20;;;;;;5139364;27;20448;-80
2021/06/22 11:55:48;;;;;;;6.63;2.07;;;29.70;44.40;;;;;;5136546;27;20397;-80
2021/06/22 11:58:25;;;;;;;3.87;2.13;;;29.90;44.20;;;;;;5133926;27;20523;-78
2021/06/22 12:00:54;;;;;;;4.80;1.87;;;30.00;43.60;;;;;;5132234;27;20427;-80
2021/06/22 12:03:30;;;;;;;2.23;2.00;;;30.10;43.30;;;;;;5134817;27;20442;-77
2021/06/22 12:06:11;;;;;;;4.33;2.23;;;30.10;43.10;;;;;;5136588;27;20441;-79
2021/06/22 12:08:41;;;;;;;3.00;2.10;;;29.90;43.00;;;;;;5134349;27;20529;-78
2021/06/22 12:11:09;;;;;;;3.53;2.40;;;29.90;43.20;;;;;;5136969;27;20433;-77
2021/06/22 12:13:47;;;;;;;3.27;2.13;;;29.80;43.00;;;;;;5134297;27;20444;-77
2021/06/22 12:16:24;;;;;;;3.00;2.70;;;29.80;43.00;;;;;;5134713;27;20481;-78
2021/06/22 12:18:53;;;;;;;5.27;2.50;;;29.90;43.00;;;;;;5135316;27;20445;-80
2021/06/22 12:21:21;;;;;;;7.00;2.10;;;29.90;42.60;;;;;;5136898;27;20454;-77
2021/06/22 12:23:49;;;;;;;2.77;2.00;;;29.90;42.70;;;;;;5135841;27;20423;-78
2021/06/22 12:26:17;;;;;;;1.90;1.80;;;29.90;42.80;;;;;;5133714;27;20437;-79
2021/06/22 12:28:46;;;;;;;3.90;2.10;;;29.90;42.90;;;;;;5132726;27;20515;-79
2021/06/22 12:31:15;;;;;;;2.60;2.03;;;29.80;42.90;;;;;;5134627;27;20457;-79
2021/06/22 12:33:44;;;;;;;4.33;2.03;;;29.80;43.00;;;;;;5140535;27;20436;-79
2021/06/22 12:36:14;;;;;;;2.50;1.90;;;29.90;43.20;;;;;;5146189;27;20574;-80
2021/06/22 12:38:44;;;;;;;5.20;2.17;;;29.90;43.20;;;;;;5145858;27;20442;-75
2021/06/22 12:41:12;;;;;;;3.90;2.17;;;29.90;43.20;;;;;;5145971;27;20537;-80
2021/06/22 12:43:51;;;;;;;2.87;2.20;;;29.90;43.20;;;;;;5145940;27;20469;-79
2021/06/22 12:46:20;;;;;;;5.50;2.10;;;29.90;43.30;;;;;;5149306;27;20437;-82
2021/06/22 12:48:49;;;;;;;5.83;2.37;;;30.00;43.50;;;;;;5156683;27;20508;-83
2021/06/22 12:51:18;;;;;;;4.40;2.13;;;30.10;43.20;;;;;;5148958;27;20474;-82
2021/06/22 12:53:48;;;;;;;6.63;2.13;;;30.10;43.20;;;;;;5125415;28;20470;-82
2021/06/22 12:56:17;;;;;;;2.37;2.17;;;30.00;43.30;;;;;;5125161;28;20431;-82
2021/06/22 12:58:47;;;;;;;5.47;2.13;;;30.00;43.40;;;;;;5125307;28;20470;-83
2021/06/22 13:01:37;;;;;;;5.03;2.40;;;29.90;43.50;;;;;;5137251;27;20430;-82